Arbil, Iraq
Current Conditions -  °F | °C
As of 8:00 AM on Friday 31 Oct 2014 (Local Time) from ORER Reporting Station
Scattered Clouds Scattered Clouds  
Wind Chill: 16°   Ceiling: Unl
Heat Index: 16°   Visibility: 6mi
Dew Point: 15°   Wind: 9mph
Humidity: 94%   Direction: 310°NW
Pressure: 29.88"   Gusts: NA
Location:  36.19°N, 44.01°E
Report Text: ORER 310500Z 31008KT 9000 SCT030 SCT080 16/15 Q1012
Loading
Personal Weather Stations






























Interactive Weather Map
Tropical Storm Tracking
New forecast layout! Learn more

10-Day Weather Forecast

Advertisements
Track Severe Weather on mobile